Terminal Aerodrome Forecast
Issued by NWS

Home | Current Version | Previous Version | Text Only | Print | Product List | Glossary On
Versions: 1 2 3 4 5 6 7 8 9 10 11 12 13 14 15 16 17 18 19 20 21 22 23 24 25 26
000
FTUS42 KGSP 300520
TAFHKY
TAF
KHKY 300520Z 3006/3106 20003KT P6SM BKN120
     FM301900 16006KT P6SM BKN090
     FM302300 20006KT P6SM OVC060
     FM310300 21003KT P6SM VCSH BKN045
     FM310500 00000KT P6SM BKN030=

USA.gov is the U.S. government's official web portal to all federal, state and local government web resources and services.